Time;durP1;ratioP1;P1;durP2;ratioP2;P2;SDS_P1;SDS_P2;PMS_P1;PMS_P2;Temp;Humidity;BMP_temperature;BMP_pressure;BME280_temperature;BME280_humidity;BME280_pressure;Samples;Min_cycle;Max_cycle;Signal;HPM_P1;HPM_P2
2023/01/08 00:00:47;;;;;;;86.63;34.22;;;4.90;99.90;;;;;;5142047;27;20076;-76
2023/01/08 00:03:13;;;;;;;105.30;35.63;;;4.90;99.90;;;;;;5142152;27;20027;-76
2023/01/08 00:05:57;;;;;;;116.93;34.65;;;4.90;99.90;;;;;;5141981;27;20038;-76
2023/01/08 00:08:23;;;;;;;77.50;33.67;;;4.90;99.90;;;;;;5123259;27;20026;-76
2023/01/08 00:10:54;;;;;;;118.57;34.53;;;4.90;99.90;;;;;;5123482;27;20434;-77
2023/01/08 00:13:20;;;;;;;106.68;33.55;;;4.80;99.90;;;;;;5141685;27;20030;-77
2023/01/08 00:15:45;;;;;;;98.78;33.08;;;4.80;99.90;;;;;;5114702;28;20451;-77
2023/01/08 00:18:15;;;;;;;94.30;33.80;;;4.80;99.90;;;;;;5141962;27;20099;-77
2023/01/08 00:20:44;;;;;;;113.53;33.80;;;4.80;99.90;;;;;;5123567;27;20027;-75
2023/01/08 00:23:14;;;;;;;171.45;36.70;;;4.80;99.90;;;;;;5141641;27;20072;-75
2023/01/08 00:25:40;;;;;;;87.85;34.53;;;4.70;99.90;;;;;;5123306;27;20477;-75
2023/01/08 00:35:00;;;;;;;106.90;32.63;;;4.70;99.90;;;;;;5143020;27;20042;-75
2023/01/08 00:41:03;;;;;;;136.95;36.85;;;4.60;99.90;;;;;;5143058;27;20068;-76
2023/01/08 00:47:15;;;;;;;92.22;36.70;;;4.60;99.90;;;;;;5142511;27;20095;-75
2023/01/08 00:53:33;;;;;;;82.72;35.58;;;4.70;99.90;;;;;;5140282;27;20053;-76
2023/01/08 01:13:55;;;;;;;113.55;32.97;;;4.60;99.90;;;;;;5141323;27;20047;-75
2023/01/08 01:16:21;;;;;;;81.50;30.25;;;4.50;99.90;;;;;;5118404;27;20047;-75
2023/01/08 01:18:47;;;;;;;80.68;31.10;;;4.50;99.90;;;;;;5122244;27;20035;-75
2023/01/08 01:21:46;;;;;;;101.05;29.40;;;4.40;99.90;;;;;;5140195;27;20023;-76
2023/01/08 01:24:55;;;;;;;80.57;28.70;;;4.30;99.90;;;;;;5121480;27;20387;-75
2023/01/08 01:27:21;;;;;;;187.55;34.55;;;4.30;99.90;;;;;;5139186;27;20049;-75
2023/01/08 01:29:46;;;;;;;124.72;31.92;;;4.30;99.90;;;;;;5118497;27;20062;-75
2023/01/08 01:35:35;;;;;;;157.38;33.13;;;4.20;99.90;;;;;;5136326;27;20147;-75
2023/01/08 01:38:01;;;;;;;195.40;35.97;;;4.20;99.90;;;;;;5118556;27;20022;-75
2023/01/08 01:40:26;;;;;;;153.18;33.65;;;4.20;99.90;;;;;;5120274;27;20387;-75
2023/01/08 01:42:52;;;;;;;137.70;35.88;;;4.20;99.90;;;;;;5121626;27;20024;-75
2023/01/08 01:45:21;;;;;;;177.85;36.92;;;4.20;99.90;;;;;;5120550;27;20092;-75
2023/01/08 01:47:53;;;;;;;162.10;33.80;;;4.20;99.90;;;;;;5121085;27;20455;-76
2023/01/08 01:50:31;;;;;;;114.20;34.33;;;4.20;99.90;;;;;;5139669;27;20019;-75
2023/01/08 01:53:05;;;;;;;112.25;34.22;;;4.20;99.90;;;;;;5139550;27;20122;-76
2023/01/08 01:55:34;;;;;;;127.88;34.25;;;4.20;99.90;;;;;;5121494;27;20027;-76
2023/01/08 01:58:05;;;;;;;107.35;33.25;;;4.20;99.90;;;;;;5139908;27;20051;-76
2023/01/08 02:00:32;;;;;;;112.05;34.10;;;4.20;99.90;;;;;;5120960;27;20031;-76
2023/01/08 02:02:59;;;;;;;127.47;33.50;;;4.20;99.90;;;;;;5121204;27;20030;-75
2023/01/08 02:05:34;;;;;;;147.30;35.88;;;4.20;99.90;;;;;;5121297;28;20027;-75
2023/01/08 02:11:21;;;;;;;150.55;36.90;;;4.10;99.90;;;;;;5076197;28;20415;-76
2023/01/08 02:14:05;;;;;;;176.32;38.92;;;4.10;99.90;;;;;;5134955;28;20028;-75
2023/01/08 02:20:01;;;;;;;117.55;35.25;;;4.00;99.90;;;;;;5137526;28;20034;-76
2023/01/08 02:23:23;;;;;;;198.60;38.30;;;4.10;99.90;;;;;;5121194;28;20049;-75
2023/01/08 02:26:04;;;;;;;134.90;38.78;;;4.10;99.90;;;;;;5139368;28;20046;-76
2023/01/08 02:28:33;;;;;;;161.98;40.42;;;4.10;99.90;;;;;;5121540;28;20028;-76
2023/01/08 02:30:59;;;;;;;113.15;39.38;;;4.10;99.90;;;;;;5139571;28;20026;-76
2023/01/08 02:33:28;;;;;;;142.35;38.53;;;4.10;99.90;;;;;;5141464;28;20106;-75
2023/01/08 02:36:32;;;;;;;166.00;37.67;;;4.20;99.90;;;;;;5141659;28;20027;-75
2023/01/08 02:39:22;;;;;;;153.63;38.55;;;4.20;99.90;;;;;;5120278;28;20048;-75
2023/01/08 02:41:59;;;;;;;135.05;38.58;;;4.20;99.90;;;;;;5121164;28;20019;-75
2023/01/08 02:44:47;;;;;;;136.35;38.97;;;4.10;99.90;;;;;;5120708;28;20447;-75
2023/01/08 02:47:34;;;;;;;131.85;37.22;;;4.10;99.90;;;;;;5121819;28;20511;-76
2023/01/08 02:50:16;;;;;;;122.80;40.13;;;4.10;99.90;;;;;;5139266;28;20023;-76
2023/01/08 02:52:54;;;;;;;109.25;36.58;;;4.10;99.90;;;;;;5120868;28;20169;-76
2023/01/08 02:55:22;;;;;;;155.02;40.60;;;4.10;99.90;;;;;;5139246;28;20023;-76
2023/01/08 02:57:49;;;;;;;91.35;27.33;;;4.10;99.90;;;;;;5138769;28;20023;-76
2023/01/08 03:00:15;;;;;;;113.82;37.55;;;4.10;99.90;;;;;;5120491;28;20408;-76
2023/01/08 03:02:42;;;;;;;117.97;38.38;;;4.10;99.90;;;;;;5139943;28;20023;-76
2023/01/08 03:05:18;;;;;;;120.28;38.58;;;4.10;99.90;;;;;;5140017;28;20472;-76
2023/01/08 03:07:44;;;;;;;111.03;38.67;;;4.00;99.90;;;;;;5119030;28;20475;-76
2023/01/08 03:10:10;;;;;;;102.38;34.53;;;4.00;99.90;;;;;;5119463;27;20031;-76
2023/01/08 03:12:43;;;;;;;111.10;36.20;;;4.00;99.90;;;;;;5123657;27;20034;-76
2023/01/08 03:15:14;;;;;;;100.35;36.63;;;4.00;99.90;;;;;;5124798;27;20110;-76
2023/01/08 03:18:17;;;;;;;131.68;35.40;;;4.00;99.90;;;;;;5144779;27;20047;-76
2023/01/08 03:20:46;;;;;;;133.63;36.42;;;4.10;99.90;;;;;;5144691;27;20070;-75
2023/01/08 03:23:12;;;;;;;93.22;35.50;;;4.00;99.90;;;;;;5124991;27;20046;-75
2023/01/08 03:25:41;;;;;;;138.43;38.63;;;4.00;99.90;;;;;;5144245;27;20027;-76
2023/01/08 03:28:15;;;;;;;107.03;35.75;;;4.00;99.90;;;;;;5123674;27;20020;-76
2023/01/08 03:30:42;;;;;;;135.52;37.22;;;4.00;99.90;;;;;;5144247;27;20059;-76
2023/01/08 03:33:10;;;;;;;125.78;36.22;;;4.00;99.90;;;;;;5142884;27;20430;-76
2023/01/08 03:35:41;;;;;;;132.60;36.53;;;4.00;99.90;;;;;;5122225;27;20046;-75
2023/01/08 03:38:31;;;;;;;123.53;37.30;;;3.90;99.90;;;;;;5141696;27;20513;-76
2023/01/08 03:41:03;;;;;;;145.48;39.60;;;4.00;99.90;;;;;;5123464;27;20487;-75
2023/01/08 03:43:29;;;;;;;143.40;40.20;;;4.00;99.90;;;;;;5142037;27;20045;-75
2023/01/08 03:45:58;;;;;;;134.35;39.53;;;3.90;99.90;;;;;;5140732;27;20098;-76
2023/01/08 03:48:26;;;;;;;158.65;39.95;;;3.90;99.90;;;;;;5139295;27;20023;-76
2023/01/08 03:50:51;;;;;;;126.65;40.55;;;3.90;99.90;;;;;;5137702;27;20032;-76
2023/01/08 03:53:17;;;;;;;117.00;38.78;;;3.80;99.90;;;;;;5119710;27;20023;-75
2023/01/08 03:55:43;;;;;;;151.18;43.03;;;3.90;99.90;;;;;;5137753;27;20354;-76
2023/01/08 03:58:08;;;;;;;184.82;41.55;;;3.90;99.90;;;;;;5137982;27;20027;-76
2023/01/08 04:00:34;;;;;;;159.75;42.10;;;3.90;99.90;;;;;;5118869;27;20065;-76
2023/01/08 04:03:00;;;;;;;126.15;41.83;;;3.90;99.90;;;;;;5119454;27;20026;-76
2023/01/08 04:05:25;;;;;;;123.78;40.15;;;3.90;99.90;;;;;;5138116;27;20058;-76
2023/01/08 04:07:55;;;;;;;121.40;39.35;;;3.90;99.90;;;;;;5138166;27;20107;-76
2023/01/08 04:10:21;;;;;;;137.25;42.33;;;3.90;99.90;;;;;;5119949;27;20027;-76
2023/01/08 04:12:47;;;;;;;124.55;39.90;;;3.90;99.90;;;;;;5119465;27;20107;-76
2023/01/08 04:15:12;;;;;;;126.35;39.42;;;3.90;99.90;;;;;;5120239;27;20361;-76
2023/01/08 04:17:38;;;;;;;126.25;39.70;;;3.90;99.90;;;;;;5137488;27;20433;-75
2023/01/08 04:20:04;;;;;;;124.35;41.28;;;3.90;99.90;;;;;;5118809;27;20019;-75
2023/01/08 04:22:30;;;;;;;125.75;39.97;;;3.80;99.90;;;;;;5137649;27;20084;-76
2023/01/08 04:24:55;;;;;;;124.15;38.13;;;3.90;99.90;;;;;;5137668;27;20031;-76
2023/01/08 04:27:21;;;;;;;142.80;39.67;;;3.90;99.90;;;;;;5119192;27;20464;-75
2023/01/08 04:29:47;;;;;;;116.07;37.97;;;3.80;99.90;;;;;;5118665;27;20023;-76
2023/01/08 04:32:12;;;;;;;130.23;39.03;;;3.80;99.90;;;;;;5137370;27;20353;-76
2023/01/08 04:34:38;;;;;;;118.03;39.80;;;3.80;99.90;;;;;;5118983;27;20478;-76
2023/01/08 04:37:04;;;;;;;109.30;39.35;;;3.80;99.90;;;;;;5137434;27;20050;-76
2023/01/08 04:39:30;;;;;;;125.70;37.97;;;3.90;99.90;;;;;;5119384;27;20027;-76
2023/01/08 04:41:55;;;;;;;119.88;39.83;;;3.90;99.90;;;;;;5118337;27;20034;-76
2023/01/08 04:44:21;;;;;;;120.53;38.22;;;3.80;99.90;;;;;;5119389;27;20080;-76
2023/01/08 04:46:47;;;;;;;106.75;39.63;;;3.80;99.90;;;;;;5137434;27;20552;-76
2023/01/08 04:49:12;;;;;;;120.28;40.55;;;3.90;99.90;;;;;;5119545;27;20048;-76
2023/01/08 04:51:38;;;;;;;115.85;36.63;;;3.90;99.90;;;;;;5137557;27;20035;-76
2023/01/08 04:54:04;;;;;;;119.93;38.72;;;3.90;99.90;;;;;;5140651;27;20395;-76
2023/01/08 04:56:30;;;;;;;117.88;38.40;;;3.90;99.90;;;;;;5122471;27;20027;-76
2023/01/08 04:58:56;;;;;;;110.55;35.90;;;3.90;99.90;;;;;;5123168;27;20028;-76
2023/01/08 05:01:24;;;;;;;121.95;36.42;;;3.90;99.90;;;;;;5122373;27;20487;-76
2023/01/08 05:04:01;;;;;;;108.03;36.08;;;3.90;99.90;;;;;;5140354;27;20035;-76
2023/01/08 05:06:29;;;;;;;113.55;33.85;;;3.90;99.90;;;;;;5140428;27;20019;-76
2023/01/08 05:08:55;;;;;;;119.75;35.35;;;3.90;99.90;;;;;;5139819;27;20019;-76
2023/01/08 05:11:21;;;;;;;106.10;35.20;;;3.90;99.90;;;;;;5139801;27;20023;-76
2023/01/08 05:13:48;;;;;;;100.82;34.08;;;3.80;99.90;;;;;;5121936;27;20034;-76
2023/01/08 05:16:15;;;;;;;98.15;32.72;;;3.80;99.90;;;;;;5140890;27;20046;-76
2023/01/08 05:18:40;;;;;;;94.72;33.05;;;3.90;99.90;;;;;;5140840;27;20031;-76
2023/01/08 05:21:06;;;;;;;104.85;33.55;;;3.90;99.90;;;;;;5121866;27;20041;-76
2023/01/08 05:23:32;;;;;;;87.85;31.52;;;3.90;99.90;;;;;;5140596;27;20239;-76
2023/01/08 05:26:00;;;;;;;79.93;30.70;;;3.90;99.90;;;;;;5121823;27;20031;-76
2023/01/08 05:28:26;;;;;;;98.07;32.22;;;3.90;99.90;;;;;;5122072;27;20072;-76
2023/01/08 05:30:53;;;;;;;100.88;34.28;;;3.90;99.90;;;;;;5140054;27;20023;-76
2023/01/08 05:33:19;;;;;;;98.88;33.35;;;3.90;99.90;;;;;;5140518;27;20068;-76
2023/01/08 05:35:45;;;;;;;137.35;32.85;;;3.90;99.90;;;;;;5121796;27;20035;-76
2023/01/08 05:38:11;;;;;;;96.75;34.63;;;3.90;99.90;;;;;;5122093;27;20019;-76
2023/01/08 05:40:36;;;;;;;118.63;33.65;;;3.80;99.90;;;;;;5139636;27;20421;-76
2023/01/08 05:43:04;;;;;;;100.75;33.67;;;3.80;99.90;;;;;;5121753;27;20425;-76
2023/01/08 05:45:30;;;;;;;100.43;34.00;;;3.80;99.90;;;;;;5140088;27;20038;-76
2023/01/08 05:47:56;;;;;;;111.13;32.25;;;3.80;99.90;;;;;;5121917;27;20030;-76
2023/01/08 05:50:22;;;;;;;100.55;34.65;;;3.80;99.90;;;;;;5138749;27;20020;-76
2023/01/08 05:52:48;;;;;;;100.85;31.77;;;3.80;99.90;;;;;;5121270;27;20031;-76
2023/01/08 05:55:16;;;;;;;88.90;33.03;;;3.80;99.90;;;;;;5139722;27;20045;-76
2023/01/08 05:57:42;;;;;;;91.13;31.40;;;3.80;99.90;;;;;;5139883;27;20054;-76
2023/01/08 06:00:09;;;;;;;92.43;32.53;;;3.80;99.90;;;;;;5139583;27;20453;-76
2023/01/08 06:02:35;;;;;;;113.95;34.03;;;3.80;99.90;;;;;;5120488;28;20110;-76
2023/01/08 06:05:00;;;;;;;97.55;32.53;;;3.80;99.90;;;;;;5121360;28;20046;-76
2023/01/08 06:07:28;;;;;;;102.03;33.85;;;3.80;99.90;;;;;;5121411;28;20050;-76
2023/01/08 06:09:54;;;;;;;93.40;31.52;;;3.80;99.90;;;;;;5120809;28;20047;-76
2023/01/08 06:12:19;;;;;;;95.10;34.22;;;3.80;99.90;;;;;;5121004;28;20042;-76
2023/01/08 06:14:45;;;;;;;95.68;34.22;;;3.80;99.90;;;;;;5121173;28;20030;-76
2023/01/08 06:17:11;;;;;;;104.55;33.25;;;3.70;99.90;;;;;;5133300;28;20055;-76
2023/01/08 06:19:46;;;;;;;92.65;33.30;;;3.70;99.90;;;;;;5116896;28;20031;-76
2023/01/08 06:22:11;;;;;;;107.15;35.00;;;3.70;99.90;;;;;;5135483;28;20023;-76
2023/01/08 06:24:37;;;;;;;97.85;34.97;;;3.60;99.90;;;;;;5134628;28;20092;-76
2023/01/08 06:27:03;;;;;;;105.10;34.67;;;3.60;99.90;;;;;;5134725;28;20463;-75
2023/01/08 06:29:28;;;;;;;116.05;33.50;;;3.60;99.90;;;;;;5134945;28;20435;-76
2023/01/08 06:31:54;;;;;;;105.05;33.30;;;3.60;99.90;;;;;;5116562;28;20090;-76
2023/01/08 06:34:20;;;;;;;110.50;35.50;;;3.60;99.90;;;;;;5134708;28;20027;-76
2023/01/08 06:36:46;;;;;;;110.50;35.05;;;3.50;99.90;;;;;;5134725;28;20560;-76
2023/01/08 06:39:12;;;;;;;111.45;35.13;;;3.50;99.90;;;;;;5116544;28;20126;-76
2023/01/08 06:41:37;;;;;;;104.05;32.63;;;3.50;99.90;;;;;;5135281;28;20517;-76
2023/01/08 06:44:03;;;;;;;115.30;34.42;;;3.40;99.90;;;;;;5134853;28;20032;-76
2023/01/08 06:46:29;;;;;;;115.63;36.03;;;3.40;99.90;;;;;;5136434;27;20074;-76
2023/01/08 06:48:55;;;;;;;113.03;35.38;;;3.50;99.90;;;;;;5140044;27;20138;-76
2023/01/08 06:51:20;;;;;;;104.75;34.63;;;3.50;99.90;;;;;;5139335;27;20027;-76
2023/01/08 06:53:49;;;;;;;150.30;36.22;;;3.50;99.90;;;;;;5138809;27;20034;-75
2023/01/08 06:56:15;;;;;;;107.97;34.88;;;3.50;99.90;;;;;;5120399;27;20023;-75
2023/01/08 06:58:40;;;;;;;114.00;34.70;;;3.50;99.90;;;;;;5138842;27;20034;-76
2023/01/08 07:01:06;;;;;;;101.25;35.22;;;3.50;99.90;;;;;;5120187;27;20034;-76
2023/01/08 07:03:31;;;;;;;117.40;36.85;;;3.50;99.90;;;;;;5139715;27;20030;-76
2023/01/08 07:05:57;;;;;;;114.65;35.90;;;3.50;99.90;;;;;;5120084;27;20030;-76
2023/01/08 07:08:23;;;;;;;129.95;36.78;;;3.50;99.90;;;;;;5139663;27;20024;-76
2023/01/08 07:10:49;;;;;;;128.13;38.22;;;3.50;99.90;;;;;;5120421;27;20023;-76
2023/01/08 07:13:14;;;;;;;122.63;36.90;;;3.50;99.90;;;;;;5123183;27;20027;-76
2023/01/08 07:15:41;;;;;;;110.53;38.15;;;3.50;99.90;;;;;;5120517;27;20015;-75
2023/01/08 07:18:09;;;;;;;152.80;39.05;;;3.60;99.90;;;;;;5123244;27;20035;-76
2023/01/08 07:20:55;;;;;;;136.73;37.97;;;3.60;99.90;;;;;;5142268;27;20022;-73
2023/01/08 07:23:20;;;;;;;138.00;37.08;;;3.50;99.90;;;;;;5138546;27;20027;-76
2023/01/08 07:25:46;;;;;;;125.60;36.92;;;3.50;99.90;;;;;;5120021;27;20022;-75
2023/01/08 07:28:12;;;;;;;137.48;40.40;;;3.50;99.90;;;;;;5066096;22;20056;-75
2023/01/08 07:30:38;;;;;;;113.75;37.25;;;3.50;99.90;;;;;;5035891;28;20017;-77
2023/01/08 07:33:03;;;;;;;120.45;36.53;;;3.40;99.90;;;;;;5037189;28;20155;-77
2023/01/08 07:35:29;;;;;;;157.70;40.13;;;3.50;99.90;;;;;;5035601;28;20028;-76
2023/01/08 07:37:55;;;;;;;128.75;36.17;;;3.40;99.90;;;;;;5036902;28;20112;-76
2023/01/08 07:40:21;;;;;;;129.65;36.30;;;3.50;99.90;;;;;;5036698;28;20025;-73
2023/01/08 07:42:46;;;;;;;140.88;35.13;;;3.50;99.90;;;;;;5037484;28;20033;-75
2023/01/08 07:45:12;;;;;;;141.60;36.45;;;3.50;99.90;;;;;;5036625;28;20036;-74
2023/01/08 07:47:47;;;;;;;139.02;36.63;;;3.40;99.90;;;;;;5035300;28;20029;-74
2023/01/08 07:50:12;;;;;;;134.10;36.38;;;3.50;99.90;;;;;;5036841;28;20369;-74
2023/01/08 07:52:38;;;;;;;145.48;38.13;;;3.50;99.90;;;;;;5035054;28;20052;-76
2023/01/08 07:55:04;;;;;;;134.27;37.97;;;3.40;99.90;;;;;;5033898;28;20033;-74
2023/01/08 07:57:29;;;;;;;142.32;36.08;;;3.40;99.90;;;;;;5034241;28;20032;-75
2023/01/08 07:59:55;;;;;;;133.55;35.92;;;3.50;99.90;;;;;;5032196;28;20029;-78
2023/01/08 08:02:21;;;;;;;126.82;35.00;;;3.40;99.90;;;;;;5034166;28;20025;-75
2023/01/08 08:04:46;;;;;;;119.95;34.50;;;3.40;99.90;;;;;;5035882;28;20120;-72
2023/01/08 08:07:12;;;;;;;120.70;33.70;;;3.40;99.90;;;;;;5036311;28;20082;-72
2023/01/08 08:09:38;;;;;;;120.75;34.20;;;3.50;99.90;;;;;;5034708;28;20075;-71
2023/01/08 08:12:03;;;;;;;114.55;33.17;;;3.50;99.90;;;;;;5036276;28;20032;-71
2023/01/08 08:14:29;;;;;;;105.97;33.13;;;3.50;99.90;;;;;;5035786;28;20032;-72
2023/01/08 08:16:55;;;;;;;130.80;31.80;;;3.40;99.90;;;;;;5035223;28;20483;-71
2023/01/08 08:19:20;;;;;;;120.03;32.92;;;3.40;99.90;;;;;;5036599;28;20390;-71
2023/01/08 08:21:46;;;;;;;116.80;31.42;;;3.40;99.90;;;;;;5036071;28;20418;-76
2023/01/08 08:24:11;;;;;;;108.38;33.97;;;3.30;99.90;;;;;;5034700;28;20029;-75
2023/01/08 08:26:37;;;;;;;138.48;32.45;;;3.30;99.90;;;;;;5035340;28;20040;-75
2023/01/08 08:29:03;;;;;;;112.18;33.08;;;3.30;99.90;;;;;;5034946;28;20022;-74
2023/01/08 08:31:28;;;;;;;105.70;32.60;;;3.30;99.90;;;;;;5035939;28;20043;-75
2023/01/08 08:33:54;;;;;;;112.03;32.72;;;3.30;99.90;;;;;;5035637;28;20455;-76
2023/01/08 08:36:20;;;;;;;99.65;32.35;;;3.30;99.90;;;;;;5034466;28;20021;-76
2023/01/08 08:38:46;;;;;;;120.22;31.15;;;3.30;99.90;;;;;;5035907;28;20040;-75
2023/01/08 08:41:12;;;;;;;101.30;31.17;;;3.20;99.90;;;;;;5033944;28;20029;-75
2023/01/08 08:43:38;;;;;;;114.07;32.08;;;3.30;99.90;;;;;;5035456;28;20033;-76
2023/01/08 08:46:04;;;;;;;118.90;29.40;;;3.20;99.90;;;;;;5034304;28;20030;-77
2023/01/08 08:48:29;;;;;;;106.32;31.08;;;3.20;99.90;;;;;;5036060;28;20033;-77
2023/01/08 08:50:55;;;;;;;92.90;30.85;;;3.20;99.90;;;;;;5035570;28;20026;-76
2023/01/08 08:53:21;;;;;;;122.57;32.50;;;3.10;99.90;;;;;;5035364;28;20032;-75
2023/01/08 08:55:46;;;;;;;89.93;29.00;;;3.20;99.90;;;;;;5034005;28;20029;-76
2023/01/08 08:58:12;;;;;;;105.47;29.50;;;3.20;99.90;;;;;;5034845;28;20021;-76
2023/01/08 09:00:39;;;;;;;107.28;29.10;;;3.20;99.90;;;;;;5034290;28;20021;-75
2023/01/08 09:03:05;;;;;;;101.35;28.38;;;3.20;99.90;;;;;;5035383;28;20025;-76
2023/01/08 09:05:34;;;;;;;91.28;27.48;;;3.20;99.90;;;;;;5035313;28;20449;-76
2023/01/08 09:08:00;;;;;;;90.60;27.90;;;3.10;99.90;;;;;;5033686;28;20470;-76
2023/01/08 09:10:27;;;;;;;127.82;28.00;;;3.10;99.90;;;;;;5032982;28;20116;-73
2023/01/08 09:12:53;;;;;;;88.03;25.30;;;3.10;99.90;;;;;;5034130;28;20028;-74
2023/01/08 09:15:19;;;;;;;89.72;26.23;;;3.10;99.90;;;;;;5034961;28;20033;-74
2023/01/08 09:17:50;;;;;;;112.60;26.08;;;3.10;99.90;;;;;;5034879;28;20026;-73
2023/01/08 09:20:16;;;;;;;85.10;26.92;;;2.70;99.90;;;;;;5014390;28;20479;-74
2023/01/08 09:22:42;;;;;;;95.15;27.65;;;3.10;99.90;;;;;;5014885;28;20025;-74
2023/01/08 09:25:07;;;;;;;101.18;26.27;;;3.10;99.90;;;;;;5030848;28;20038;-73
2023/01/08 09:27:33;;;;;;;108.20;27.30;;;3.10;99.90;;;;;;5013351;28;20046;-73
2023/01/08 09:29:59;;;;;;;95.47;25.48;;;3.10;99.90;;;;;;5014795;28;20033;-71
2023/01/08 09:32:24;;;;;;;80.75;25.65;;;3.10;99.90;;;;;;5013198;28;20022;-75
2023/01/08 09:34:50;;;;;;;81.65;26.27;;;3.20;99.90;;;;;;5014352;28;20033;-76
2023/01/08 09:37:16;;;;;;;85.43;26.40;;;3.30;99.90;;;;;;5014465;28;20038;-76
2023/01/08 09:39:41;;;;;;;99.93;26.63;;;3.30;99.90;;;;;;5015121;28;20123;-75
2023/01/08 09:42:10;;;;;;;83.20;25.25;;;3.30;99.90;;;;;;5014302;28;20022;-76
2023/01/08 09:44:42;;;;;;;87.88;24.42;;;3.30;99.90;;;;;;5013882;28;20042;-76
2023/01/08 09:47:31;;;;;;;103.47;24.38;;;3.30;99.90;;;;;;5014152;28;20462;-77
2023/01/08 09:50:01;;;;;;;100.45;24.77;;;3.40;99.90;;;;;;5013150;28;20040;-76
2023/01/08 09:52:30;;;;;;;84.35;25.63;;;3.40;99.90;;;;;;5014457;28;20133;-76
2023/01/08 09:54:56;;;;;;;87.57;25.80;;;3.40;99.90;;;;;;5012733;28;20030;-75
2023/01/08 09:57:22;;;;;;;83.13;26.52;;;3.40;99.90;;;;;;5014741;28;20030;-77
2023/01/08 09:59:48;;;;;;;83.65;25.98;;;3.40;99.90;;;;;;5014263;28;20053;-75
2023/01/08 10:02:21;;;;;;;79.75;25.00;;;3.40;99.90;;;;;;5014033;28;20109;-77
2023/01/08 10:04:56;;;;;;;80.97;26.13;;;3.50;99.90;;;;;;5031056;28;20025;-76
2023/01/08 10:07:30;;;;;;;102.30;23.98;;;3.50;99.90;;;;;;5037017;28;20022;-75
2023/01/08 10:10:02;;;;;;;132.85;25.88;;;3.50;99.90;;;;;;5036578;28;20364;-74
2023/01/08 10:12:31;;;;;;;81.30;23.58;;;3.60;99.90;;;;;;5049763;28;20116;-75
2023/01/08 10:15:00;;;;;;;91.35;24.85;;;3.50;99.90;;;;;;5033634;28;20498;-74
2023/01/08 10:17:51;;;;;;;92.60;23.90;;;3.50;99.90;;;;;;5048998;28;20029;-74
2023/01/08 10:20:20;;;;;;;84.32;24.23;;;3.50;99.90;;;;;;5035131;28;20136;-74
2023/01/08 10:22:47;;;;;;;105.43;25.70;;;3.50;99.90;;;;;;5053010;28;20022;-75
2023/01/08 10:25:19;;;;;;;91.28;24.23;;;3.50;99.90;;;;;;5037621;28;20029;-75
2023/01/08 10:27:49;;;;;;;81.55;24.92;;;3.50;99.90;;;;;;5037234;28;20144;-76
2023/01/08 10:30:21;;;;;;;84.47;23.23;;;3.50;99.90;;;;;;5037913;28;20029;-75
2023/01/08 10:32:54;;;;;;;83.68;24.65;;;3.60;99.90;;;;;;5053796;28;20067;-75
2023/01/08 10:35:27;;;;;;;85.78;23.23;;;3.60;99.90;;;;;;5052921;28;20025;-75
2023/01/08 10:37:53;;;;;;;78.18;24.48;;;3.60;99.90;;;;;;5037808;28;20029;-74
2023/01/08 10:40:48;;;;;;;79.25;23.65;;;3.60;99.90;;;;;;5052719;28;20095;-74
2023/01/08 10:43:20;;;;;;;70.32;23.27;;;3.70;99.90;;;;;;5037127;28;20482;-76
2023/01/08 10:46:00;;;;;;;72.07;24.13;;;3.70;99.90;;;;;;5037495;28;20470;-72
2023/01/08 10:48:57;;;;;;;82.38;25.27;;;3.70;99.90;;;;;;5055500;28;20056;-75
2023/01/08 10:51:28;;;;;;;78.95;25.02;;;3.70;99.90;;;;;;5050794;28;20107;-76
2023/01/08 10:53:57;;;;;;;76.05;25.40;;;3.80;99.90;;;;;;5059137;28;20504;-77
2023/01/08 10:56:40;;;;;;;69.00;22.35;;;3.80;99.90;;;;;;5057172;28;20067;-76
2023/01/08 10:59:18;;;;;;;69.38;23.20;;;3.80;99.90;;;;;;5057537;28;20428;-76
2023/01/08 11:01:50;;;;;;;66.43;21.85;;;3.80;99.90;;;;;;5056927;28;20120;-77
2023/01/08 11:04:31;;;;;;;60.28;21.65;;;3.80;99.90;;;;;;5058480;28;20040;-77
2023/01/08 11:07:01;;;;;;;67.10;22.75;;;3.80;99.90;;;;;;5056225;28;20029;-77
2023/01/08 11:09:30;;;;;;;69.82;22.95;;;3.90;99.90;;;;;;5058180;28;20025;-77
2023/01/08 11:11:57;;;;;;;57.60;21.52;;;3.90;99.90;;;;;;5056962;28;20455;-77
2023/01/08 11:14:30;;;;;;;72.40;23.08;;;3.90;99.90;;;;;;5057048;28;20032;-77
2023/01/08 11:16:57;;;;;;;61.63;21.50;;;3.80;99.90;;;;;;5055350;28;20119;-77
2023/01/08 11:19:26;;;;;;;65.70;22.85;;;3.80;99.90;;;;;;5056646;28;20430;-76
2023/01/08 11:21:59;;;;;;;;;;;3.90;99.90;;;;;;5056308;28;20024;-76
2023/01/08 11:24:29;;;;;;;69.43;23.05;;;3.90;99.90;;;;;;5056484;28;19920;-76
2023/01/08 11:27:03;;;;;;;65.97;23.25;;;3.90;99.90;;;;;;5059164;28;20076;-77
2023/01/08 11:29:48;;;;;;;64.45;23.17;;;3.90;99.90;;;;;;5060323;28;20033;-77
2023/01/08 11:32:26;;;;;;;64.47;21.20;;;4.00;99.90;;;;;;5058096;28;20025;-77
2023/01/08 11:34:57;;;;;;;61.05;22.42;;;4.00;99.90;;;;;;5060931;28;20025;-77
2023/01/08 11:37:40;;;;;;;64.55;22.60;;;4.00;99.90;;;;;;5059770;28;20104;-77
2023/01/08 11:40:36;;;;;;;59.22;23.65;;;4.10;99.90;;;;;;5060414;28;20023;-76
2023/01/08 11:43:17;;;;;;;61.97;23.27;;;4.10;99.90;;;;;;5054648;28;20041;-76
2023/01/08 11:46:11;;;;;;;121.43;23.23;;;4.10;99.90;;;;;;5055104;28;20033;-77
2023/01/08 11:49:11;;;;;;;61.60;23.40;;;4.20;99.90;;;;;;5049436;28;20048;-77
2023/01/08 11:51:43;;;;;;;59.60;21.45;;;4.20;99.90;;;;;;5038436;28;20101;-76
2023/01/08 11:54:18;;;;;;;59.28;21.13;;;4.20;99.90;;;;;;5021033;28;20121;-77
2023/01/08 11:57:02;;;;;;;58.20;23.05;;;4.10;99.90;;;;;;5022582;28;20044;-77
2023/01/08 11:59:40;;;;;;;58.20;22.83;;;4.10;99.90;;;;;;5021321;28;20118;-77
2023/01/08 12:02:49;;;;;;;59.47;22.83;;;4.10;99.90;;;;;;5021255;28;20106;-76
2023/01/08 12:05:24;;;;;;;56.60;19.50;;;4.10;99.90;;;;;;5022451;28;20498;-76
2023/01/08 12:08:02;;;;;;;55.70;20.63;;;4.10;99.90;;;;;;5021414;28;20026;-76
2023/01/08 12:10:31;;;;;;;57.83;20.90;;;4.10;99.90;;;;;;5022106;28;20037;-77
2023/01/08 12:13:23;;;;;;;53.90;20.85;;;4.10;99.90;;;;;;5021406;28;20026;-76
2023/01/08 12:16:13;;;;;;;57.38;20.92;;;4.10;99.90;;;;;;5024721;28;20030;-77
2023/01/08 12:18:57;;;;;;;46.17;18.23;;;4.20;99.90;;;;;;5039744;28;20042;-76
2023/01/08 12:21:31;;;;;;;48.08;19.08;;;4.20;99.90;;;;;;5039797;28;20031;-76
2023/01/08 12:24:25;;;;;;;49.17;19.58;;;4.20;99.90;;;;;;5040836;28;20037;-76
2023/01/08 12:27:15;;;;;;;52.53;20.02;;;4.20;99.90;;;;;;5040678;28;20048;-77
2023/01/08 12:30:05;;;;;;;51.80;20.70;;;4.30;99.90;;;;;;5052377;28;20084;-76
2023/01/08 12:32:40;;;;;;;48.28;19.88;;;4.30;99.90;;;;;;5043560;28;20167;-76
2023/01/08 12:35:30;;;;;;;53.30;20.90;;;4.20;99.90;;;;;;5038671;28;20048;-77
2023/01/08 12:38:10;;;;;;;52.53;19.52;;;4.20;99.90;;;;;;5038866;28;20030;-76
2023/01/08 12:40:41;;;;;;;48.22;20.80;;;4.10;99.90;;;;;;5038878;28;20032;-78
2023/01/08 12:43:16;;;;;;;45.63;19.50;;;4.10;99.90;;;;;;5052053;28;20025;-77
2023/01/08 12:45:49;;;;;;;44.38;19.20;;;4.00;99.90;;;;;;5058731;28;20386;-77
2023/01/08 12:48:17;;;;;;;42.08;18.35;;;4.00;99.90;;;;;;5055339;28;20032;-76
2023/01/08 12:50:55;;;;;;;35.50;14.93;;;4.10;99.90;;;;;;5054940;28;20033;-77
2023/01/08 12:53:48;;;;;;;54.05;19.33;;;4.10;99.90;;;;;;5054154;28;20055;-77
2023/01/08 12:56:19;;;;;;;42.80;17.73;;;4.20;99.90;;;;;;5055105;28;20100;-77
2023/01/08 12:58:45;;;;;;;41.63;18.13;;;4.30;99.90;;;;;;5054413;28;20032;-77
2023/01/08 13:01:48;;;;;;;48.83;18.40;;;4.40;99.90;;;;;;5051874;28;20025;-77
2023/01/08 13:04:14;;;;;;;39.83;17.00;;;4.40;99.90;;;;;;5055161;28;20037;-77
2023/01/08 13:07:17;;;;;;;48.38;17.83;;;4.40;99.90;;;;;;5054907;28;20147;-77
2023/01/08 13:09:43;;;;;;;44.80;18.63;;;4.40;99.90;;;;;;5043568;28;20037;-77
2023/01/08 13:12:13;;;;;;;44.17;18.80;;;4.50;99.90;;;;;;5053675;28;20572;-77
2023/01/08 13:14:46;;;;;;;38.88;16.67;;;4.50;99.90;;;;;;5054604;28;20398;-77
2023/01/08 13:17:20;;;;;;;39.80;16.65;;;4.50;99.90;;;;;;5035717;28;20033;-76
2023/01/08 13:19:53;;;;;;;42.47;19.05;;;4.50;99.90;;;;;;5033959;28;20025;-77
2023/01/08 13:22:33;;;;;;;41.60;18.27;;;4.50;99.90;;;;;;5052393;28;20029;-76
2023/01/08 13:25:15;;;;;;;42.70;17.90;;;4.60;99.90;;;;;;5055446;28;20394;-77
2023/01/08 13:27:42;;;;;;;43.22;18.55;;;4.60;99.90;;;;;;5052583;28;20052;-77
2023/01/08 13:30:41;;;;;;;39.22;16.92;;;4.60;99.90;;;;;;5052825;28;20036;-77
2023/01/08 13:33:21;;;;;;;;;;;4.60;99.90;;;;;;5015052;28;20030;-77
2023/01/08 13:35:47;;;;;;;37.50;16.50;;;4.60;99.90;;;;;;5013604;28;20274;-77